Aeroporto :
LOGIN :

Iscrizione | Disclaimer

   EN    FR    IT 

 










Sommario :    VFR   VFR Marginale   IFR   IFR Intensivo   IFR Molto Intensivo
Visibilità : 
Base nubi : 
>= 8 km
>= 3000ft
5 / 8 km
1000 / 3000 ft
1500m / 5 km
500 / 1000 ft
800 / 1500m
200 / 500 ft
< 800m
< 200 ft
Simboli :   Temporali  Nebbia  Neve Forte  Precipitazioni Forti  Vento > 20 kt
SIGMETs :   Varie  Temporali  Ghiacco  Turbolenza  Onda orograficha  Ceneri Vulcaniche






- Altitudine del aeroporto : 285 ft
- Codice IATA : GOZ


LBGO - Gorna Oryahovitsa

ULTIMO METAR :
  • 010800Z AUTO 00000KT 1600 1300E R/////// BR FEW003 OVC020 00/00 Q1026 R99/592093 TEMPO 1500 BR

METARs OBSOLETI :
  • 010730Z AUTO 32002KT 1200 0800SW R/////// BR FEW004 OVC022 00/00 Q1026 R99/592093 TEMPO 1500 BR
  • 010700Z AUTO 33002KT 1600 0900SW R/////// BR SCT003 OVC027 00/00 Q1026 R99/592093 TEMPO 1500 BR
  • 010630Z AUTO 30003KT 1400 1300SW R/////// BR FEW001 SCT004 OVC031 M00/M00 Q1026 R99/592093 TEMPO 1500 BR
  • 010600Z AUTO 29003KT 2100 1400SW R/////// -FZRA BR FEW002 BKN025 OVC031 M00/M00 Q1026 R99/592093 TEMPO 0500 FZFG
  • 010530Z AUTO 32002KT 2200 1100W R/////// BR FEW001 BKN016 OVC024 M00/M00 Q1026 R99/592093 TEMPO 0500 FZFG

TAF TAF LBGO
Valido dal 01 a 06 ore il 02 a 06 ore UTC


010500Z 0106/0206 VRB04KT 3000 BR BKN005 OVC015
PROB30
TEMPO 0106/0108 0600 FZFG BKN003 OVC005
BECMG 0108/0110 9999 SCT020 BKN040
BECMG 0121/0123 4000 BR BKN015
PROB40
TEMPO 0200/0206 0600 FZFG BKN003



MetMap, La meteo Aeronautica in un colpo d'occhio ! - Copyright ORBIFLY Dicembre 2007 - Disclaimer

ORBIFLY MET'MAP TEAM :

Programmazione e sviluppo : Alexandra Zaïnal
Concezione : Baudouin d'Aumeries
Aiuto per la programmazione : Marc-Olivier Méhu
Supporto tecnico e logistico : Manuel Goepfert
Aiuto per la traduzione : Arnaldo La Scala

Contatto : metmap@orbifly.com




FONTI E CREDITI :

   NOAA